Relevés horaires St-Hubert (Belgique)


Relevés horaires à St-Hubert - Mardi 14 Mai 2019
Heure UTC1 Température [°C] Vent [km/h] Hum. [%] Pres.4 [hPa] Visi. [Km] Nébu. [octa] Préc.5 [mm] Cond.
2m. Res. Ros. Dir.2 Vit. Moy. Raf.3
23:00 5.5 3.9 -0.5 ENE 7.4 7.4 11.1 65 1028.8(-0.4/3h) 45 0/8 -- --
22:00 6.0 5 -- NE 5.6 5.6 7.4 -- 1028.9(0.1/3h) 45 0/8 -- --
21:00 6.7 6.7 0.7 ENE 3.7 9.3 16.7 65 1028.9(0.0/3h) 45 0/8 -- --
20:00 8.3 7.6 -- NE 5.6 7.4 14.8 -- 1028.6(0.0/3h) 45 0/8 -- --
19:00 10.0 9.1 -0.2 ENE 7.4 9.3 16.7 49 1028(-0.3/3h) 40 0/8 -- --
18:00 11.6 10.7 -1.2 NE 9.3 11.1 18.5 41 1027.7(-0.6/3h) 40 0/8 0/12h
--
17:00 12.3 11.5 -0.5 ENE 9.3 11.1 16.7 41 1027.6(-1.0/3h) 30 0/8 -- --
16:00 12.6 11.6 -0.5 NNE 11.1 11.1 18.5 40 1027.8(-1.5/3h) 40 3/8 -- --
15:00 12.9 12.2 0.7 ENE 9.3 11.1 18.5 43 1028(-1.6/3h) 30 0/8 -- --
15:00 12.9 12.2 0.7 ENE 9.3 11.1 18.5 43 1028(-1.6/3h) 30 0/8 -- --
14:00 12.5 11.7 -1.4 NE 9.3 11.1 16.7 38 1028.7(-1.5/3h) 35 0/8 -- --
13:00 12.8 12.1 -2.3 ENE 9.3 11.1 18.5 35 1029.3(-1.5/3h) 35 0/8 -- --
13:00 12.8 12.1 -2.3 ENE 9.3 11.1 18.5 35 1029.3(-1.5/3h) 35 0/8 -- --
12:00 12.0 11.1 -7.8 ENE 9.3 13.0 18.5 24 1030.1(-1.4/3h) 40 0/8 0/6h
--
12:00 12.0 11.1 -7.8 ENE 9.3 13.0 18.5 24 1030.1(-1.4/3h) 40 0/8 0/6h
--
11:00 11.5 10.3 -6.6 NE 11.1 11.1 18.5 27 1030.6(-1.2/3h) 30 0/8 -- --
11:00 11.5 10.3 -6.6 NE 11.1 11.1 18.5 27 1030.6(-1.2/3h) 30 0/8 -- --
10:00 10.0 9.1 -7.5 NE 7.4 9.3 16.7 28 1031.7(-0.9/3h) 40 0/8 -- --
09:00 8.7 7.6 -4.1 NE 7.4 11.1 18.5 40 1032.3(-0.9/3h) 30 0/8 -- --
08:00 8.0 6.4 -2.4 ENE 9.3 11.1 18.5 48 1032.6(-0.6/3h) 35 0/8 -- --
07:00 6.6 4.7 -1.0 ENE 9.3 9.3 13.0 58 1033.4(-0.4/3h) 30 0/8 -- --
06:00 4.9 3.2 -1.6 ENE 7.4 9.3 13.0 63 1034.1(0.2/3h) 35 0/8 0/12h
--
05:00 3.6 2.3 -1.3 ENE 5.6 5.6 9.3 70 1034.4(-0.7/3h) 40 0/8 -- --
04:00 2.1 0.5 -1.7 ENE 5.6 7.4 9.3 76 1034.9(-0.8/3h) 45 0/8 -- --

1 Coordinated Universal Time. Actuellement il est 07:00 locale et 05:00 UTC.

2 Le vent souffle depuis la direction indiquée vers la direction oposée.

3 Les rafales max. sont disponible 40 min après l'heure du relevé.

4 Pour les stations d'altitude (plus de 600m) le géopotentiel du niveau le plus proche de la pression obligatoire est indiqué.

5 Les stations disposant d'un diffuseur peuvent indiquer "trace". Cela signifie que des précipitations ont touchés le sol mais que la quantité est inférieure à 0.1 mm.

Récapitulatif de la journée
Température [°C] Vent [km/h] Ensoleillement4 [h] Precipitations totale5 [mm] Pression [Hpa]
Min1 Max.2 Moy.3 Max. Min Max.
1.0 13.3 10 18.5 0 h 0 min 0 1027.6 1034.9

1 Température minimale relevée entre 18:00 UTC la veille et 18:00 UTC le jour donné.

2 Température maximale relevée entre 06:00 UTC le jour donné et 06:00 UTC le lendemain.

3 Vent moyen de la journée basé sur les relevés horaires.

4 Ensoleillement en heures relevé entre 06:00 UTC la veille et 06:00 UTC le jour donné.

5 Précipitations totales tombées entre 06:00 UTC la jour donné et 06:00 UTC le lendemain.

Graphiques horaires